Time;durP1;ratioP1;P1;durP2;ratioP2;P2;SDS_P1;SDS_P2;PMS_P1;PMS_P2;Temp;Humidity;BMP_temperature;BMP_pressure;BME280_temperature;BME280_humidity;BME280_pressure;Samples;Min_cycle;Max_cycle;Signal;HPM_P1;HPM_P2
2022/11/03 00:01:37;;;;;;;12.70;5.93;;;;;;;;;;4995785;28;20129;-81
2022/11/03 00:04:07;;;;;;;10.02;6.10;;;;;;;;;;4995748;28;20482;-80
2022/11/03 00:06:34;;;;;;;13.82;6.43;;;;;;;;;;4979467;28;20061;-81
2022/11/03 00:09:04;;;;;;;9.32;5.82;;;;;;;;;;5012646;28;20061;-80
2022/11/03 00:11:34;;;;;;;12.95;5.95;;;;;;;;;;4980870;28;20061;-80
2022/11/03 00:14:02;;;;;;;10.57;5.55;;;;;;;;;;4977084;28;20050;-78
2022/11/03 00:16:28;;;;;;;10.75;5.93;;;;;;;;;;4972290;28;20053;-78
2022/11/03 00:18:55;;;;;;;15.77;5.68;;;;;;;;;;5012230;28;20410;-78
2022/11/03 00:21:22;;;;;;;16.52;6.32;;;;;;;;;;4976846;28;20120;-79
2022/11/03 00:23:49;;;;;;;11.38;5.03;;;;;;;;;;4977965;28;20045;-79
2022/11/03 00:26:16;;;;;;;13.10;5.68;;;;;;;;;;4996300;28;20061;-79
2022/11/03 00:28:44;;;;;;;11.40;5.30;;;;;;;;;;5014832;28;20058;-80
2022/11/03 00:31:13;;;;;;;12.95;5.25;;;;;;;;;;4969012;28;20062;-80
2022/11/03 00:33:40;;;;;;;10.45;4.30;;;;;;;;;;4983381;28;20052;-79
2022/11/03 00:36:12;;;;;;;10.23;4.70;;;;;;;;;;4998981;28;20056;-79
2022/11/03 00:38:39;;;;;;;12.15;5.47;;;;;;;;;;4983655;28;20052;-81
2022/11/03 00:41:05;;;;;;;8.55;4.78;;;;;;;;;;4974228;28;20054;-81
2022/11/03 00:43:33;;;;;;;11.27;5.07;;;;;;;;;;5003031;28;20088;-80
2022/11/03 00:46:00;;;;;;;10.55;5.68;;;;;;;;;;5018510;28;20461;-79
2022/11/03 00:48:30;;;;;;;8.95;4.93;;;;;;;;;;4981386;28;20046;-80
2022/11/03 00:51:22;;;;;;;9.48;4.38;;;;;;;;;;5006498;28;20073;-80
2022/11/03 00:53:53;;;;;;;9.68;5.28;;;;;;;;;;5020975;28;20057;-80
2022/11/03 00:56:25;;;;;;;10.63;4.35;;;;;;;;;;5019393;28;20053;-81
2022/11/03 00:58:56;;;;;;;7.70;4.43;;;;;;;;;;4987627;28;20046;-81
2022/11/03 01:01:27;;;;;;;8.05;4.13;;;;;;;;;;5004371;28;20050;-82
2022/11/03 01:06:52;;;;;;;7.88;4.50;;;;;;;;;;5018836;28;20046;-81
2022/11/03 01:09:39;;;;;;;11.80;5.20;;;;;;;;;;4980622;28;20133;-82
2022/11/03 01:12:14;;;;;;;7.45;4.55;;;;;;;;;;4996306;28;20056;-82
2022/11/03 01:14:43;;;;;;;6.88;4.22;;;;;;;;;;4985392;28;20057;-80
2022/11/03 01:17:21;;;;;;;9.38;5.28;;;;;;;;;;5000468;28;20045;-81
2022/11/03 01:19:48;;;;;;;14.43;5.25;;;;;;;;;;5001811;28;20061;-81
2022/11/03 01:22:16;;;;;;;11.73;5.38;;;;;;;;;;5020551;23;20042;-71
2022/11/03 01:24:43;;;;;;;8.57;5.22;;;;;;;;;;5013648;28;20563;-71
2022/11/03 01:27:14;;;;;;;8.40;4.93;;;;;;;;;;5013416;28;20089;-70
2022/11/03 01:29:41;;;;;;;15.82;5.20;;;;;;;;;;5013261;28;20224;-70
2022/11/03 01:32:08;;;;;;;11.93;5.47;;;;;;;;;;5014480;28;20485;-71
2022/11/03 01:34:35;;;;;;;12.93;4.93;;;;;;;;;;5014428;28;20092;-70
2022/11/03 01:37:01;;;;;;;11.30;5.15;;;;;;;;;;5013247;28;20104;-70
2022/11/03 01:39:28;;;;;;;12.30;5.57;;;;;;;;;;5012545;28;20058;-70
2022/11/03 01:41:55;;;;;;;10.15;4.50;;;;;;;;;;5014425;28;20161;-70
2022/11/03 01:44:23;;;;;;;8.80;4.95;;;;;;;;;;5014087;28;20104;-71
2022/11/03 01:47:01;;;;;;;8.38;5.63;;;;;;;;;;5014201;28;20472;-71
2022/11/03 01:50:07;;;;;;;15.20;5.60;;;;;;;;;;5014135;28;20417;-71
2022/11/03 01:52:43;;;;;;;9.60;5.60;;;;;;;;;;5011536;28;20050;-70
2022/11/03 01:55:12;;;;;;;11.52;5.53;;;;;;;;;;5013939;28;20464;-70
2022/11/03 01:57:44;;;;;;;12.57;5.82;;;;;;;;;;5012573;28;20077;-71
2022/11/03 02:00:12;;;;;;;7.18;5.28;;;;;;;;;;5028316;28;20054;-70
2022/11/03 02:02:39;;;;;;;8.20;5.18;;;;;;;;;;5029291;28;20046;-71
2022/11/03 02:05:06;;;;;;;12.00;5.40;;;;;;;;;;5013658;28;20088;-70
2022/11/03 02:07:38;;;;;;;7.47;4.78;;;;;;;;;;5013781;28;20053;-70
2022/11/03 02:10:05;;;;;;;14.60;5.82;;;;;;;;;;5012047;28;20046;-70
2022/11/03 02:12:31;;;;;;;11.75;5.22;;;;;;;;;;5028688;28;20100;-70
2022/11/03 02:15:17;;;;;;;9.77;5.05;;;;;;;;;;5013437;28;20135;-71
2022/11/03 02:17:45;;;;;;;14.65;5.47;;;;;;;;;;5012285;28;20049;-71
2022/11/03 02:20:16;;;;;;;9.82;5.10;;;;;;;;;;5013232;28;20100;-70
2022/11/03 02:23:01;;;;;;;9.45;5.72;;;;;;;;;;5028298;28;20061;-70
2022/11/03 02:25:28;;;;;;;10.95;5.70;;;;;;;;;;5013674;28;20125;-71
2022/11/03 02:27:55;;;;;;;9.02;5.45;;;;;;;;;;5013215;28;20050;-70
2022/11/03 02:30:21;;;;;;;8.38;4.82;;;;;;;;;;5013371;28;20469;-70
2022/11/03 02:33:17;;;;;;;11.50;4.90;;;;;;;;;;5013156;28;20054;-70
2022/11/03 02:36:01;;;;;;;9.02;5.32;;;;;;;;;;5025514;28;20140;-70
2022/11/03 02:38:28;;;;;;;12.88;5.10;;;;;;;;;;5011533;28;20050;-70
2022/11/03 02:40:54;;;;;;;10.60;5.40;;;;;;;;;;5012168;28;20077;-70
2022/11/03 02:43:21;;;;;;;10.18;6.22;;;;;;;;;;5012105;28;20107;-71
2022/11/03 02:45:48;;;;;;;10.32;5.82;;;;;;;;;;5012765;28;20081;-71
2022/11/03 02:48:14;;;;;;;10.52;5.30;;;;;;;;;;5010974;28;20085;-70
2022/11/03 02:50:41;;;;;;;10.30;5.72;;;;;;;;;;5027894;28;20137;-71
2022/11/03 02:53:12;;;;;;;8.93;5.45;;;;;;;;;;5012743;28;20089;-70
2022/11/03 02:55:50;;;;;;;10.63;5.38;;;;;;;;;;4994756;28;20050;-70
2022/11/03 02:58:37;;;;;;;9.52;5.25;;;;;;;;;;5027533;28;20520;-71
2022/11/03 03:01:23;;;;;;;7.97;5.20;;;;;;;;;;5011686;28;20092;-71
2022/11/03 03:03:57;;;;;;;14.60;6.15;;;;;;;;;;5012669;28;20049;-71
2022/11/03 03:06:29;;;;;;;10.88;5.32;;;;;;;;;;5011439;28;20569;-71
2022/11/03 03:09:00;;;;;;;8.35;4.85;;;;;;;;;;5010867;28;20137;-71
2022/11/03 03:11:36;;;;;;;8.23;4.97;;;;;;;;;;5011369;28;20042;-71
2022/11/03 03:14:14;;;;;;;12.30;5.90;;;;;;;;;;5011530;28;20050;-71
2022/11/03 03:16:47;;;;;;;8.00;4.75;;;;;;;;;;5012939;28;20561;-71
2022/11/03 03:19:32;;;;;;;9.02;5.07;;;;;;;;;;5011566;28;20468;-71
2022/11/03 03:22:00;;;;;;;9.63;5.47;;;;;;;;;;5026263;28;20136;-71
2022/11/03 03:24:37;;;;;;;8.93;5.00;;;;;;;;;;5011222;28;20081;-71
2022/11/03 03:27:05;;;;;;;11.18;4.95;;;;;;;;;;5011037;28;20505;-71
2022/11/03 03:29:45;;;;;;;16.50;5.90;;;;;;;;;;5010551;28;20050;-71
2022/11/03 03:32:12;;;;;;;16.67;6.97;;;;;;;;;;5011096;28;20570;-71
2022/11/03 03:34:39;;;;;;;14.60;7.15;;;;;;;;;;5011119;28;20073;-71
2022/11/03 03:37:05;;;;;;;12.35;6.93;;;;;;;;;;5011261;28;20468;-71
2022/11/03 03:39:33;;;;;;;10.52;6.55;;;;;;;;;;5026684;28;20165;-71
2022/11/03 03:42:00;;;;;;;12.65;7.13;;;;;;;;;;5011043;28;20096;-71
2022/11/03 03:44:27;;;;;;;12.60;6.68;;;;;;;;;;5008832;28;20046;-71
2022/11/03 03:47:00;;;;;;;11.98;6.25;;;;;;;;;;5011055;28;20053;-71
2022/11/03 03:49:26;;;;;;;12.65;6.50;;;;;;;;;;5010357;28;20413;-71
2022/11/03 03:51:53;;;;;;;14.98;7.40;;;;;;;;;;5010680;28;20501;-71
2022/11/03 03:54:19;;;;;;;12.73;6.50;;;;;;;;;;5027060;28;20081;-71
2022/11/03 03:57:00;;;;;;;14.63;6.72;;;;;;;;;;5011853;28;20128;-71
2022/11/03 03:59:26;;;;;;;10.43;6.15;;;;;;;;;;5026589;28;20057;-72
2022/11/03 04:01:53;;;;;;;15.45;6.75;;;;;;;;;;5012128;28;20515;-71
2022/11/03 04:04:20;;;;;;;12.43;6.32;;;;;;;;;;5011419;28;20092;-72
2022/11/03 04:06:46;;;;;;;11.13;6.63;;;;;;;;;;5011861;28;20134;-71
2022/11/03 04:09:13;;;;;;;13.93;6.38;;;;;;;;;;5011230;28;20133;-71
2022/11/03 04:23:06;;;;;;;10.10;6.40;;;;;;;;;;4989705;28;20514;-71
2022/11/03 04:25:33;;;;;;;10.65;6.28;;;;;;;;;;5002055;28;20466;-72
2022/11/03 04:28:00;;;;;;;12.75;6.03;;;;;;;;;;5006801;28;20531;-72
2022/11/03 04:30:27;;;;;;;10.68;6.15;;;;;;;;;;5008591;28;20085;-72
2022/11/03 04:32:53;;;;;;;12.18;6.38;;;;;;;;;;5011515;28;20132;-71
2022/11/03 04:35:24;;;;;;;11.93;6.72;;;;;;;;;;5011318;28;20050;-71
2022/11/03 04:37:58;;;;;;;15.07;6.85;;;;;;;;;;5025229;28;20563;-71
2022/11/03 04:40:24;;;;;;;11.40;5.97;;;;;;;;;;5011415;28;20075;-71
2022/11/03 04:42:51;;;;;;;13.10;6.47;;;;;;;;;;5011460;28;20057;-70
2022/11/03 04:45:30;;;;;;;12.73;5.57;;;;;;;;;;5011831;28;20134;-70
2022/11/03 04:47:58;;;;;;;10.85;6.10;;;;;;;;;;5024786;28;20559;-71
2022/11/03 04:50:24;;;;;;;12.98;5.97;;;;;;;;;;5010311;28;20050;-71
2022/11/03 04:52:56;;;;;;;9.25;5.57;;;;;;;;;;5010494;28;20133;-70
2022/11/03 04:55:23;;;;;;;12.10;6.65;;;;;;;;;;5010151;28;20149;-72
2022/11/03 04:57:57;;;;;;;12.77;6.13;;;;;;;;;;5011179;28;20120;-72
2022/11/03 05:00:23;;;;;;;12.43;5.57;;;;;;;;;;5010306;28;20092;-71
2022/11/03 05:02:50;;;;;;;10.55;5.47;;;;;;;;;;5011402;28;20050;-72
2022/11/03 05:05:23;;;;;;;15.13;6.78;;;;;;;;;;4992601;28;20046;-71
2022/11/03 05:07:51;;;;;;;11.27;6.30;;;;;;;;;;4991041;28;20050;-72
2022/11/03 05:10:20;;;;;;;15.18;7.07;;;;;;;;;;5006552;28;20050;-71
2022/11/03 05:12:46;;;;;;;20.17;7.95;;;;;;;;;;4991747;28;20430;-71
2022/11/03 05:15:30;;;;;;;22.25;9.95;;;;;;;;;;5008108;28;20043;-72
2022/11/03 05:17:58;;;;;;;24.05;11.30;;;;;;;;;;5009522;28;20085;-71
2022/11/03 05:20:36;;;;;;;24.45;10.30;;;;;;;;;;4995923;28;20493;-72
2022/11/03 05:23:03;;;;;;;24.25;11.05;;;;;;;;;;5009289;28;20053;-72
2022/11/03 05:25:39;;;;;;;23.10;11.52;;;;;;;;;;5017053;28;20042;-72
2022/11/03 05:28:18;;;;;;;18.23;10.43;;;;;;;;;;5030623;28;20108;-72
2022/11/03 05:30:49;;;;;;;22.08;11.30;;;;;;;;;;5016666;28;20072;-72
2022/11/03 05:33:26;;;;;;;21.30;9.80;;;;;;;;;;5015425;28;20089;-72
2022/11/03 05:35:53;;;;;;;18.40;11.15;;;;;;;;;;5017166;28;20565;-72
2022/11/03 05:38:20;;;;;;;18.38;10.98;;;;;;;;;;4997987;28;20081;-72
2022/11/03 05:40:53;;;;;;;17.98;10.70;;;;;;;;;;5015084;28;20133;-71
2022/11/03 05:43:20;;;;;;;23.60;11.18;;;;;;;;;;5015020;28;20136;-72
2022/11/03 05:45:48;;;;;;;18.88;10.57;;;;;;;;;;5014709;28;20050;-71
2022/11/03 05:48:18;;;;;;;20.75;9.95;;;;;;;;;;5014083;28;20109;-72
2022/11/03 05:50:45;;;;;;;22.08;10.45;;;;;;;;;;5031564;28;20050;-72
2022/11/03 05:53:28;;;;;;;18.15;10.88;;;;;;;;;;5016262;28;20284;-72
2022/11/03 05:55:56;;;;;;;20.38;10.43;;;;;;;;;;5018061;28;20086;-72
2022/11/03 05:58:25;;;;;;;17.00;9.85;;;;;;;;;;5013724;28;20050;-72
2022/11/03 06:00:52;;;;;;;18.83;10.13;;;;;;;;;;5016959;28;20046;-72
2022/11/03 06:03:29;;;;;;;21.65;8.95;;;;;;;;;;5016625;28;20049;-72
2022/11/03 06:05:56;;;;;;;16.42;8.68;;;;;;;;;;5014454;28;20081;-72
2022/11/03 06:08:26;;;;;;;16.17;9.13;;;;;;;;;;4995366;28;20092;-72
2022/11/03 06:10:54;;;;;;;15.65;9.80;;;;;;;;;;5010796;28;20092;-72
2022/11/03 06:13:30;;;;;;;16.45;9.25;;;;;;;;;;5010922;28;20050;-72
2022/11/03 06:16:02;;;;;;;18.23;10.05;;;;;;;;;;4994935;28;20132;-72
2022/11/03 06:18:32;;;;;;;18.42;9.95;;;;;;;;;;5011180;28;20124;-72
2022/11/03 06:21:03;;;;;;;17.55;10.20;;;;;;;;;;5010435;28;20137;-71
2022/11/03 06:23:32;;;;;;;13.05;9.75;;;;;;;;;;5010108;28;20287;-72
2022/11/03 06:26:01;;;;;;;30.40;12.68;;;;;;;;;;5010623;28;20575;-72
2022/11/03 06:28:35;;;;;;;18.52;10.77;;;;;;;;;;5009302;28;20081;-72
2022/11/03 06:31:04;;;;;;;19.88;11.52;;;;;;;;;;5002773;28;20050;-72
2022/11/03 06:33:33;;;;;;;20.13;11.57;;;;;;;;;;4992007;28;20054;-72
2022/11/03 06:36:19;;;;;;;20.23;11.88;;;;;;;;;;4974495;28;20070;-72
2022/11/03 06:38:55;;;;;;;19.40;11.55;;;;;;;;;;4991354;28;20061;-74
2022/11/03 06:41:25;;;;;;;25.17;13.60;;;;;;;;;;4989109;28;20090;-74
2022/11/03 06:43:52;;;;;;;21.00;13.68;;;;;;;;;;5007447;28;20137;-73
2022/11/03 06:46:23;;;;;;;19.92;13.57;;;;;;;;;;5009605;28;20058;-73
2022/11/03 06:48:51;;;;;;;17.77;11.48;;;;;;;;;;5009280;28;20053;-72
2022/11/03 06:51:26;;;;;;;15.93;9.07;;;;;;;;;;5025561;28;20100;-73
2022/11/03 06:53:54;;;;;;;16.17;8.77;;;;;;;;;;5010736;28;20054;-70
2022/11/03 06:56:23;;;;;;;16.17;8.38;;;;;;;;;;4994251;28;20386;-73
2022/11/03 06:58:51;;;;;;;12.50;7.93;;;;;;;;;;5026119;28;20085;-72
2022/11/03 07:01:29;;;;;;;11.55;7.47;;;;;;;;;;5011369;28;20076;-74
2022/11/03 07:04:17;;;;;;;11.38;7.55;;;;;;;;;;5010424;28;20057;-74
2022/11/03 07:06:43;;;;;;;12.95;7.20;;;;;;;;;;5011102;28;20124;-73
2022/11/03 07:09:21;;;;;;;14.50;7.88;;;;;;;;;;5011074;28;20131;-73
2022/11/03 07:11:58;;;;;;;14.35;8.73;;;;;;;;;;4998205;28;20093;-74
2022/11/03 07:14:31;;;;;;;19.88;9.38;;;;;;;;;;5007286;28;20109;-77
2022/11/03 07:17:01;;;;;;;17.77;9.35;;;;;;;;;;5008817;28;20058;-74
2022/11/03 07:19:27;;;;;;;14.32;7.72;;;;;;;;;;5006564;28;20058;-76
2022/11/03 07:21:58;;;;;;;14.52;9.05;;;;;;;;;;4991818;28;20046;-72
2022/11/03 07:24:25;;;;;;;17.00;9.93;;;;;;;;;;4990543;28;20050;-72
2022/11/03 07:27:13;;;;;;;17.10;9.85;;;;;;;;;;4988887;28;20160;-73
2022/11/03 07:29:39;;;;;;;23.80;9.93;;;;;;;;;;4989015;28;20082;-73
2022/11/03 07:32:15;;;;;;;14.32;8.77;;;;;;;;;;5002889;28;20054;-72
2022/11/03 07:34:42;;;;;;;14.10;8.55;;;;;;;;;;5007951;28;20085;-72
2022/11/03 07:37:13;;;;;;;12.35;7.82;;;;;;;;;;5007335;28;20050;-72
2022/11/03 07:39:39;;;;;;;16.98;8.55;;;;;;;;;;5022732;28;20563;-73
2022/11/03 07:42:32;;;;;;;13.50;8.15;;;;;;;;;;5009551;28;20108;-73
2022/11/03 07:44:59;;;;;;;14.52;8.95;;;;;;;;;;5009150;28;20046;-72
2022/11/03 07:47:26;;;;;;;17.92;9.70;;;;;;;;;;5009019;28;20136;-71
2022/11/03 07:49:54;;;;;;;14.25;8.38;;;;;;;;;;5023318;28;20089;-73
2022/11/03 07:52:24;;;;;;;16.73;8.63;;;;;;;;;;5007997;28;20089;-72
2022/11/03 07:54:52;;;;;;;14.25;8.30;;;;;;;;;;5009869;28;20458;-72
2022/11/03 07:57:22;;;;;;;14.40;8.23;;;;;;;;;;5008847;28;20085;-72
2022/11/03 08:00:04;;;;;;;11.55;7.70;;;;;;;;;;5008453;28;20100;-72
2022/11/03 08:02:36;;;;;;;12.50;7.65;;;;;;;;;;5009716;28;20050;-73
2022/11/03 08:05:03;;;;;;;13.25;6.97;;;;;;;;;;5024511;28;20049;-72
2022/11/03 08:07:31;;;;;;;15.23;7.72;;;;;;;;;;5010234;28;20137;-73
2022/11/03 08:09:58;;;;;;;11.80;6.80;;;;;;;;;;5009347;28;20472;-72
2022/11/03 08:12:24;;;;;;;13.57;7.40;;;;;;;;;;5009790;28;20085;-72
2022/11/03 08:14:51;;;;;;;13.52;6.57;;;;;;;;;;5009549;28;20050;-72
2022/11/03 08:17:18;;;;;;;12.25;6.35;;;;;;;;;;5024857;28;20129;-71
2022/11/03 08:19:44;;;;;;;12.05;6.55;;;;;;;;;;5008908;28;20476;-71
2022/11/03 08:22:11;;;;;;;11.82;6.63;;;;;;;;;;5009866;28;20082;-76
2022/11/03 08:24:37;;;;;;;10.80;7.00;;;;;;;;;;5010214;28;20181;-72
2022/11/03 08:27:04;;;;;;;10.07;6.43;;;;;;;;;;5009813;28;20472;-73
2022/11/03 08:29:31;;;;;;;9.18;5.93;;;;;;;;;;5009075;28;20108;-73
2022/11/03 08:31:57;;;;;;;8.10;5.82;;;;;;;;;;5009109;28;20097;-74
2022/11/03 08:34:24;;;;;;;11.98;5.60;;;;;;;;;;5009855;28;20744;-69
2022/11/03 08:36:50;;;;;;;13.32;6.45;;;;;;;;;;5009562;28;20513;-73
2022/11/03 08:39:17;;;;;;;8.40;5.28;;;;;;;;;;5009154;28;20050;-73
2022/11/03 08:41:43;;;;;;;9.85;5.68;;;;;;;;;;5009731;28;20393;-73
2022/11/03 08:44:10;;;;;;;11.40;5.90;;;;;;;;;;5008880;28;20054;-73
2022/11/03 08:46:37;;;;;;;10.73;5.82;;;;;;;;;;5010443;28;20096;-76
2022/11/03 08:49:03;;;;;;;9.40;5.53;;;;;;;;;;5012373;28;20112;-76
2022/11/03 08:51:30;;;;;;;10.48;5.60;;;;;;;;;;5006769;28;20082;-75
2022/11/03 08:53:56;;;;;;;10.93;5.20;;;;;;;;;;5014806;28;20077;-78
2022/11/03 08:56:23;;;;;;;8.95;5.95;;;;;;;;;;5002216;28;20129;-77
2022/11/03 08:58:50;;;;;;;10.68;5.65;;;;;;;;;;4996741;28;20112;-77
2022/11/03 09:01:17;;;;;;;10.48;5.55;;;;;;;;;;4994904;28;20492;-76
2022/11/03 09:03:43;;;;;;;6.13;4.72;;;;;;;;;;4998659;28;20472;-77
2022/11/03 09:06:10;;;;;;;8.68;4.85;;;;;;;;;;5005306;28;20446;-79
2022/11/03 09:08:37;;;;;;;8.35;4.85;;;;;;;;;;5010347;28;20099;-69
2022/11/03 09:11:23;;;;;;;9.27;4.70;;;;;;;;;;5013526;28;20140;-69
2022/11/03 09:13:50;;;;;;;9.40;4.50;;;;;;;;;;5013023;28;20104;-69
2022/11/03 09:16:17;;;;;;;8.40;4.50;;;;;;;;;;5014389;28;20050;-69
2022/11/03 09:18:44;;;;;;;7.00;3.80;;;;;;;;;;5012923;28;20061;-70
2022/11/03 09:21:10;;;;;;;8.30;4.00;;;;;;;;;;5014363;28;20445;-70
2022/11/03 09:23:37;;;;;;;8.60;4.18;;;;;;;;;;5014899;28;20081;-70
2022/11/03 09:26:05;;;;;;;5.45;4.15;;;;;;;;;;5014622;28;20069;-70
2022/11/03 09:28:32;;;;;;;6.88;4.00;;;;;;;;;;5014145;28;20531;-70
2022/11/03 09:30:58;;;;;;;8.75;4.15;;;;;;;;;;5014424;28;20050;-70
2022/11/03 09:33:25;;;;;;;8.80;4.63;;;;;;;;;;5014194;28;20096;-70
2022/11/03 09:35:52;;;;;;;8.27;4.55;;;;;;;;;;5014486;28;20100;-70
2022/11/03 09:38:18;;;;;;;12.13;4.55;;;;;;;;;;5013993;28;20053;-70
2022/11/03 09:40:45;;;;;;;12.95;4.43;;;;;;;;;;5014420;28;20116;-70
2022/11/03 09:43:17;;;;;;;6.40;3.75;;;;;;;;;;5013215;28;20137;-70
2022/11/03 09:45:43;;;;;;;9.52;4.55;;;;;;;;;;5014335;28;20046;-70
2022/11/03 09:48:11;;;;;;;10.77;4.30;;;;;;;;;;5029178;28;20119;-70
2022/11/03 09:50:38;;;;;;;9.85;5.00;;;;;;;;;;5029179;28;20137;-70
2022/11/03 09:53:04;;;;;;;5.68;3.83;;;;;;;;;;5029053;28;20128;-70
2022/11/03 09:55:32;;;;;;;6.53;3.97;;;;;;;;;;5014385;28;20042;-70
2022/11/03 09:58:00;;;;;;;11.98;4.32;;;;;;;;;;5012425;28;20050;-70
2022/11/03 10:00:27;;;;;;;8.82;4.22;;;;;;;;;;5028330;28;20061;-70
2022/11/03 10:02:53;;;;;;;7.47;4.57;;;;;;;;;;5013751;28;20493;-69
2022/11/03 10:05:24;;;;;;;7.45;4.32;;;;;;;;;;5014107;28;20080;-70
2022/11/03 10:07:52;;;;;;;8.85;4.25;;;;;;;;;;5028302;28;20054;-69
2022/11/03 10:10:24;;;;;;;5.80;3.33;;;;;;;;;;5013019;28;20050;-70
2022/11/03 10:12:52;;;;;;;8.48;4.00;;;;;;;;;;5012733;28;20117;-70
2022/11/03 10:15:20;;;;;;;8.02;3.90;;;;;;;;;;5014180;28;20090;-73
2022/11/03 10:17:49;;;;;;;5.55;3.88;;;;;;;;;;5013927;28;20132;-70
2022/11/03 10:20:18;;;;;;;8.27;4.35;;;;;;;;;;5011877;28;20084;-70
2022/11/03 10:22:45;;;;;;;7.32;4.18;;;;;;;;;;5013498;28;20496;-70
2022/11/03 10:25:38;;;;;;;8.73;4.38;;;;;;;;;;5012502;28;20502;-70
2022/11/03 10:28:33;;;;;;;5.80;3.97;;;;;;;;;;5013117;28;20073;-70
2022/11/03 10:31:05;;;;;;;7.30;4.00;;;;;;;;;;5013458;28;20085;-70
2022/11/03 10:33:40;;;;;;;6.82;3.38;;;;;;;;;;4993913;28;20085;-70
2022/11/03 10:36:15;;;;;;;6.88;3.28;;;;;;;;;;4993759;28;20054;-70
2022/11/03 10:38:43;;;;;;;6.90;3.60;;;;;;;;;;4993066;28;20469;-70
2022/11/03 10:41:16;;;;;;;5.03;3.20;;;;;;;;;;4993741;28;20573;-70
2022/11/03 10:43:54;;;;;;;7.75;3.53;;;;;;;;;;5014698;28;20053;-70
2022/11/03 10:46:21;;;;;;;8.93;3.30;;;;;;;;;;5037129;28;20080;-70
2022/11/03 10:49:14;;;;;;;5.32;3.00;;;;;;;;;;5037729;28;20053;-70
2022/11/03 10:51:42;;;;;;;6.20;3.28;;;;;;;;;;5053533;28;20034;-70
2022/11/03 10:54:16;;;;;;;5.65;3.25;;;;;;;;;;5037781;28;20030;-70
2022/11/03 10:56:44;;;;;;;10.10;2.63;;;;;;;;;;5037313;28;20054;-70
2022/11/03 10:59:17;;;;;;;5.70;3.00;;;;;;;;;;5037220;28;20037;-70
2022/11/03 11:01:43;;;;;;;11.82;3.72;;;;;;;;;;5021660;28;20033;-70
2022/11/03 11:04:17;;;;;;;5.03;2.70;;;;;;;;;;5038086;28;20033;-70
2022/11/03 11:06:44;;;;;;;4.55;3.00;;;;;;;;;;5021653;28;20046;-70
2022/11/03 11:09:16;;;;;;;7.28;3.28;;;;;;;;;;5037536;28;20040;-70
2022/11/03 11:12:03;;;;;;;4.97;3.35;;;;;;;;;;5035231;28;20041;-71
2022/11/03 11:14:29;;;;;;;8.15;3.45;;;;;;;;;;5033925;28;20057;-70
2022/11/03 11:16:57;;;;;;;5.43;3.38;;;;;;;;;;5033611;28;20049;-70
2022/11/03 11:19:25;;;;;;;5.95;3.15;;;;;;;;;;5030868;28;20054;-70
2022/11/03 11:21:52;;;;;;;4.10;3.05;;;;;;;;;;5034238;28;20049;-71
2022/11/03 11:24:43;;;;;;;5.75;3.63;;;;;;;;;;5031988;28;20076;-70
2022/11/03 11:27:32;;;;;;;5.32;3.17;;;;;;;;;;5031816;28;20034;-69
2022/11/03 11:30:03;;;;;;;6.43;3.08;;;;;;;;;;5027144;28;20049;-71
2022/11/03 11:32:45;;;;;;;5.82;3.05;;;;;;;;;;5033171;28;20038;-70
2022/11/03 11:35:16;;;;;;;6.00;3.42;;;;;;;;;;5016797;28;20038;-71
2022/11/03 11:37:43;;;;;;;6.80;3.33;;;;;;;;;;5029975;28;20042;-70
2022/11/03 11:40:33;;;;;;;6.80;2.90;;;;;;;;;;5034289;28;20060;-71
2022/11/03 11:43:04;;;;;;;4.28;3.17;;;;;;;;;;5028555;28;20327;-69
2022/11/03 11:46:10;;;;;;;7.38;3.08;;;;;;;;;;5023571;28;20042;-72
2022/11/03 11:48:37;;;;;;;5.63;2.80;;;;;;;;;;5011740;28;20038;-72
2022/11/03 11:51:07;;;;;;;5.85;2.90;;;;;;;;;;5011914;28;20145;-74
2022/11/03 11:53:48;;;;;;;5.95;3.40;;;;;;;;;;5010494;28;20464;-72
2022/11/03 11:56:43;;;;;;;10.38;3.72;;;;;;;;;;5010531;28;20045;-72
2022/11/03 11:59:18;;;;;;;6.97;3.78;;;;;;;;;;5026541;28;20488;-76
2022/11/03 12:01:55;;;;;;;3.83;2.80;;;;;;;;;;5011803;28;20069;-75
2022/11/03 12:04:33;;;;;;;5.38;3.03;;;;;;;;;;5015784;28;20556;-75
2022/11/03 12:07:02;;;;;;;7.75;3.00;;;;;;;;;;4994923;28;20050;-70
2022/11/03 12:09:29;;;;;;;7.78;3.70;;;;;;;;;;5025660;28;20088;-72
2022/11/03 12:11:57;;;;;;;6.47;4.00;;;;;;;;;;5011049;28;20085;-71
2022/11/03 12:14:29;;;;;;;;;;;;;;;;;;4993079;28;20140;-77
2022/11/03 12:17:18;;;;;;;3.85;2.58;;;;;;;;;;4990602;28;19925;-76
2022/11/03 12:19:59;;;;;;;6.57;3.35;;;;;;;;;;4990158;28;20509;-77
2022/11/03 12:22:26;;;;;;;5.40;2.85;;;;;;;;;;4958147;28;20057;-74
2022/11/03 12:25:03;;;;;;;7.45;3.25;;;;;;;;;;4992820;28;20533;-76
2022/11/03 12:27:32;;;;;;;6.93;2.90;;;;;;;;;;4995462;28;20391;-74
2022/11/03 12:30:02;;;;;;;4.43;2.72;;;;;;;;;;5012010;28;20464;-72
2022/11/03 12:32:30;;;;;;;6.43;3.47;;;;;;;;;;4997122;28;20086;-78
2022/11/03 12:35:07;;;;;;;8.70;3.35;;;;;;;;;;4996972;28;20046;-74
2022/11/03 12:37:36;;;;;;;5.60;3.15;;;;;;;;;;5012039;28;20505;-69
2022/11/03 12:40:03;;;;;;;6.25;2.92;;;;;;;;;;5013478;28;20108;-69
2022/11/03 12:42:30;;;;;;;5.75;2.90;;;;;;;;;;5014777;28;20050;-69
2022/11/03 12:44:56;;;;;;;7.50;3.40;;;;;;;;;;5013327;28;20105;-69
2022/11/03 12:47:24;;;;;;;5.22;3.38;;;;;;;;;;5013795;28;20045;-71
2022/11/03 12:49:52;;;;;;;6.55;2.80;;;;;;;;;;5012040;28;20050;-70
2022/11/03 12:52:18;;;;;;;5.13;3.28;;;;;;;;;;5013373;28;20085;-67
2022/11/03 12:54:45;;;;;;;8.98;3.88;;;;;;;;;;5013241;28;20058;-70
2022/11/03 12:57:12;;;;;;;9.25;3.80;;;;;;;;;;4995918;28;20409;-74
2022/11/03 12:59:39;;;;;;;7.00;3.67;;;;;;;;;;5012544;28;20050;-71
2022/11/03 13:02:10;;;;;;;8.23;3.67;;;;;;;;;;5013739;28;20050;-74
2022/11/03 13:04:43;;;;;;;6.68;3.70;;;;;;;;;;5011991;28;20138;-76
2022/11/03 13:07:09;;;;;;;9.30;3.75;;;;;;;;;;5013335;28;20057;-76
2022/11/03 13:09:36;;;;;;;8.65;4.18;;;;;;;;;;4996012;28;20085;-76
2022/11/03 13:14:48;;;;;;;7.40;4.05;;;;;;;;;;5013227;28;20488;-73
2022/11/03 13:17:15;;;;;;;8.02;3.95;;;;;;;;;;5013553;28;20050;-73
2022/11/03 13:19:42;;;;;;;14.40;4.28;;;;;;;;;;5012442;28;20058;-75
2022/11/03 13:22:20;;;;;;;6.95;4.13;;;;;;;;;;5012588;28;20065;-69
2022/11/03 13:24:46;;;;;;;16.80;6.13;;;;;;;;;;5012621;28;20096;-69
2022/11/03 13:27:13;;;;;;;9.55;4.68;;;;;;;;;;5012730;28;20108;-70
2022/11/03 13:29:40;;;;;;;7.68;4.38;;;;;;;;;;5012386;28;20050;-70
2022/11/03 13:32:07;;;;;;;9.65;5.28;;;;;;;;;;4998372;28;20115;-70
2022/11/03 13:34:34;;;;;;;7.90;4.28;;;;;;;;;;5012818;28;20049;-69
2022/11/03 13:37:00;;;;;;;12.43;4.20;;;;;;;;;;5010668;28;20173;-69
2022/11/03 13:39:27;;;;;;;7.07;4.40;;;;;;;;;;5012213;28;20134;-69
2022/11/03 13:41:53;;;;;;;8.02;4.18;;;;;;;;;;5012807;28;20054;-70
2022/11/03 13:44:20;;;;;;;5.53;4.07;;;;;;;;;;5011839;28;20552;-69
2022/11/03 13:46:47;;;;;;;8.02;4.20;;;;;;;;;;5011307;28;20046;-69
2022/11/03 13:49:14;;;;;;;11.38;4.80;;;;;;;;;;5012286;28;20050;-69
2022/11/03 13:52:01;;;;;;;7.35;4.45;;;;;;;;;;5013044;28;20056;-69
2022/11/03 13:54:28;;;;;;;7.82;3.65;;;;;;;;;;5012138;28;20088;-69
2022/11/03 13:57:14;;;;;;;11.23;4.80;;;;;;;;;;5011777;28;20061;-70
2022/11/03 14:00:03;;;;;;;11.57;4.75;;;;;;;;;;5012306;28;20057;-69
2022/11/03 14:02:31;;;;;;;12.20;6.05;;;;;;;;;;5013648;28;20060;-70
2022/11/03 14:05:18;;;;;;;9.05;5.20;;;;;;;;;;5012781;28;20085;-70
2022/11/03 14:07:45;;;;;;;8.60;5.00;;;;;;;;;;5013606;28;20050;-69
2022/11/03 14:10:11;;;;;;;14.18;5.07;;;;;;;;;;5013381;28;20079;-70
2022/11/03 14:12:38;;;;;;;8.27;4.70;;;;;;;;;;5013493;28;20088;-74
2022/11/03 14:15:07;;;;;;;10.35;5.47;;;;;;;;;;5003861;28;20056;-74
2022/11/03 14:17:34;;;;;;;11.77;4.95;;;;;;;;;;5011581;28;20456;-72
2022/11/03 14:20:05;;;;;;;6.93;5.03;;;;;;;;;;5011507;28;20484;-71
2022/11/03 14:22:34;;;;;;;9.70;5.07;;;;;;;;;;5010357;28;20072;-69
2022/11/03 14:25:01;;;;;;;7.97;5.00;;;;;;;;;;5027358;28;20104;-71
2022/11/03 14:27:28;;;;;;;11.88;5.72;;;;;;;;;;5001403;28;20061;-70
2022/11/03 14:29:55;;;;;;;9.02;5.00;;;;;;;;;;5011358;28;20061;-71
2022/11/03 14:32:21;;;;;;;10.65;4.93;;;;;;;;;;5011617;28;20550;-74
2022/11/03 14:34:48;;;;;;;11.63;5.13;;;;;;;;;;5011554;28;20531;-72
2022/11/03 14:37:15;;;;;;;10.63;5.03;;;;;;;;;;5011807;28;20519;-71
2022/11/03 14:39:41;;;;;;;13.57;6.63;;;;;;;;;;5011565;28;20401;-72
2022/11/03 14:42:14;;;;;;;14.98;6.93;;;;;;;;;;5011938;28;20053;-72
2022/11/03 14:44:43;;;;;;;12.98;6.13;;;;;;;;;;5010831;28;20058;-78
2022/11/03 14:47:20;;;;;;;12.60;6.10;;;;;;;;;;4994243;28;20394;-74
2022/11/03 14:49:48;;;;;;;9.35;6.68;;;;;;;;;;5004991;28;20050;-74
2022/11/03 14:52:16;;;;;;;12.02;5.82;;;;;;;;;;4975076;28;20050;-74
2022/11/03 14:54:43;;;;;;;10.20;6.25;;;;;;;;;;4991756;28;20057;-69
2022/11/03 14:57:10;;;;;;;10.00;7.03;;;;;;;;;;4991550;28;20096;-72
2022/11/03 14:59:37;;;;;;;13.88;8.60;;;;;;;;;;4992423;28;20050;-69
2022/11/03 15:02:04;;;;;;;14.93;8.32;;;;;;;;;;4991027;28;20509;-71
2022/11/03 15:04:36;;;;;;;10.05;7.15;;;;;;;;;;4991443;28;20205;-75
2022/11/03 15:07:04;;;;;;;12.98;6.55;;;;;;;;;;4989451;28;20061;-73
2022/11/03 15:09:34;;;;;;;10.23;6.20;;;;;;;;;;4989878;28;20051;-73
2022/11/03 15:12:01;;;;;;;15.93;6.45;;;;;;;;;;4990086;28;20065;-71
2022/11/03 15:14:28;;;;;;;10.32;6.15;;;;;;;;;;5003012;28;20089;-70